Time;durP1;ratioP1;P1;durP2;ratioP2;P2;SDS_P1;SDS_P2;PMS_P1;PMS_P2;Temp;Humidity;BMP_temperature;BMP_pressure;BME280_temperature;BME280_humidity;BME280_pressure;Samples;Min_cycle;Max_cycle;Signal;HPM_P1;HPM_P2
2023/10/11 00:00:34;;;;;;;3.97;3.22;;;17.30;99.90;;;;;;5169862;27;20626;-35
2023/10/11 00:03:16;;;;;;;4.78;2.97;;;17.30;99.90;;;;;;5101394;27;20032;-35
2023/10/11 00:05:43;;;;;;;3.85;3.03;;;17.20;99.90;;;;;;5169803;27;20026;-35
2023/10/11 00:08:16;;;;;;;3.47;3.17;;;17.20;99.90;;;;;;5102117;27;20115;-36
2023/10/11 00:10:53;;;;;;;3.88;2.78;;;17.20;99.90;;;;;;5043700;28;20477;-34
2023/10/11 00:13:19;;;;;;;5.25;3.58;;;17.10;99.90;;;;;;5125988;27;20033;-35
2023/10/11 00:15:49;;;;;;;4.10;3.35;;;17.10;99.90;;;;;;5043344;28;20115;-36
2023/10/11 00:18:30;;;;;;;3.55;3.10;;;17.00;99.90;;;;;;5112943;27;20018;-35
2023/10/11 00:20:59;;;;;;;3.92;2.95;;;17.00;99.90;;;;;;5044507;28;20047;-35
2023/10/11 00:23:27;;;;;;;3.95;3.10;;;17.00;99.90;;;;;;5113678;27;20030;-36
2023/10/11 00:26:00;;;;;;;4.63;3.05;;;17.00;99.90;;;;;;5072550;27;20020;-36
2023/10/11 00:28:26;;;;;;;5.00;3.20;;;17.00;99.90;;;;;;5112231;27;20026;-35
2023/10/11 00:30:55;;;;;;;6.18;3.30;;;17.00;99.90;;;;;;5080045;27;20112;-35
2023/10/11 00:33:21;;;;;;;3.50;3.20;;;17.00;99.90;;;;;;5054446;28;20041;-37
2023/10/11 00:35:48;;;;;;;4.80;2.97;;;17.00;99.90;;;;;;5057991;28;20132;-36
2023/10/11 00:38:18;;;;;;;4.15;3.30;;;17.00;99.90;;;;;;5086866;27;20039;-35
2023/10/11 00:41:15;;;;;;;4.90;3.33;;;17.00;99.90;;;;;;5101622;27;20405;-35
2023/10/11 00:43:55;;;;;;;5.13;3.10;;;16.90;99.90;;;;;;5100309;27;20045;-35
2023/10/11 00:46:25;;;;;;;3.55;2.97;;;16.90;99.90;;;;;;5105328;27;20062;-36
2023/10/11 00:51:25;;;;;;;4.97;3.33;;;17.00;99.90;;;;;;5141280;27;20133;-35
2023/10/11 00:53:52;;;;;;;5.15;3.15;;;17.00;99.90;;;;;;5139128;27;20082;-35
2023/10/11 00:56:18;;;;;;;4.63;3.30;;;17.00;99.90;;;;;;5133202;27;20401;-34
2023/10/11 00:58:45;;;;;;;4.55;3.05;;;17.00;99.90;;;;;;5151072;27;20037;-36
2023/10/11 01:01:14;;;;;;;5.47;3.40;;;17.00;99.90;;;;;;5119782;27;20022;-34
2023/10/11 01:03:41;;;;;;;4.15;3.20;;;17.00;99.90;;;;;;5160982;27;20038;-35
2023/10/11 01:06:10;;;;;;;4.85;3.63;;;17.00;99.90;;;;;;5108319;27;20019;-37
2023/10/11 01:08:40;;;;;;;4.30;3.15;;;17.00;99.90;;;;;;5159023;27;20527;-38
2023/10/11 01:11:11;;;;;;;3.90;3.13;;;17.00;99.90;;;;;;5108894;27;20106;-37
2023/10/11 01:13:42;;;;;;;4.00;3.38;;;17.00;99.90;;;;;;5160776;27;20090;-36
2023/10/11 01:16:11;;;;;;;4.10;3.70;;;17.00;99.90;;;;;;5118745;27;20099;-35
2023/10/11 01:18:42;;;;;;;4.30;3.45;;;17.00;99.90;;;;;;5063974;27;20035;-35
2023/10/11 01:21:08;;;;;;;3.35;3.00;;;17.00;99.90;;;;;;5122973;27;20021;-35
2023/10/11 01:23:37;;;;;;;5.28;3.35;;;17.00;99.90;;;;;;5063081;28;20036;-35
2023/10/11 01:26:09;;;;;;;6.57;3.50;;;17.00;99.90;;;;;;5128392;27;20244;-36
2023/10/11 01:28:47;;;;;;;5.20;3.88;;;17.00;99.90;;;;;;5062466;28;20029;-36
2023/10/11 01:31:16;;;;;;;5.43;3.40;;;17.00;99.90;;;;;;5128619;27;20086;-40
2023/10/11 01:33:44;;;;;;;4.20;3.47;;;17.00;99.90;;;;;;5042509;28;20490;-36
2023/10/11 01:36:11;;;;;;;5.78;3.70;;;17.00;99.90;;;;;;5106970;27;20046;-36
2023/10/11 01:38:48;;;;;;;4.88;3.58;;;17.00;99.90;;;;;;5043108;28;20044;-38
2023/10/11 01:41:20;;;;;;;4.22;3.42;;;17.00;99.90;;;;;;5048295;27;20021;-36
2023/10/11 01:43:52;;;;;;;5.28;3.65;;;17.00;99.90;;;;;;5023061;28;20060;-36
2023/10/11 01:46:24;;;;;;;;;;;17.00;99.90;;;;;;5060853;27;20028;-36
2023/10/11 01:48:50;;;;;;;3.38;2.78;;;17.00;99.90;;;;;;5042049;28;19961;-35
2023/10/11 01:51:21;;;;;;;4.95;3.42;;;17.00;99.90;;;;;;5093458;27;20023;-35
2023/10/11 01:53:49;;;;;;;4.45;3.55;;;16.90;99.90;;;;;;5052555;27;20025;-36
2023/10/11 01:56:15;;;;;;;5.40;3.35;;;16.90;99.90;;;;;;5083769;27;20381;-35
2023/10/11 01:58:42;;;;;;;4.43;3.67;;;17.00;99.90;;;;;;5063775;27;20024;-35
2023/10/11 02:01:21;;;;;;;6.03;3.95;;;16.90;99.90;;;;;;5072733;27;20034;-36
2023/10/11 02:03:51;;;;;;;5.32;3.72;;;16.90;99.90;;;;;;5066686;27;20037;-35
2023/10/11 02:06:18;;;;;;;3.90;3.28;;;16.90;99.90;;;;;;5070940;27;20026;-35
2023/10/11 02:08:44;;;;;;;4.43;3.15;;;16.90;99.90;;;;;;5077159;27;20057;-35
2023/10/11 02:11:09;;;;;;;4.20;3.17;;;16.90;99.90;;;;;;5057137;27;20124;-35
2023/10/11 02:13:39;;;;;;;4.72;3.60;;;16.90;99.90;;;;;;5090914;27;20037;-35
2023/10/11 02:16:14;;;;;;;4.95;3.20;;;16.90;99.90;;;;;;5049381;27;20017;-34
2023/10/11 02:18:43;;;;;;;6.00;3.60;;;16.90;99.90;;;;;;5084170;27;20031;-35
2023/10/11 02:21:09;;;;;;;5.35;3.88;;;16.90;99.90;;;;;;5138894;27;20024;-34
2023/10/11 02:23:39;;;;;;;5.50;3.38;;;16.90;99.90;;;;;;5087804;27;20035;-34
2023/10/11 02:26:16;;;;;;;5.18;3.95;;;16.90;99.90;;;;;;5138466;27;20517;-37
2023/10/11 02:28:46;;;;;;;8.20;4.63;;;16.90;99.90;;;;;;5088498;27;20027;-35
2023/10/11 02:31:19;;;;;;;5.40;4.30;;;16.90;99.90;;;;;;5137782;27;20110;-36
2023/10/11 02:33:46;;;;;;;4.72;3.95;;;16.80;99.90;;;;;;5087787;27;20022;-35
2023/10/11 02:36:18;;;;;;;6.38;4.07;;;16.80;99.90;;;;;;5145108;27;20493;-36
2023/10/11 02:38:54;;;;;;;6.05;4.05;;;16.80;99.90;;;;;;5085321;27;20040;-35
2023/10/11 02:41:26;;;;;;;4.82;4.03;;;16.80;99.90;;;;;;5144776;27;20055;-34
2023/10/11 02:43:52;;;;;;;6.13;4.47;;;16.80;99.90;;;;;;5083151;27;20469;-35
2023/10/11 02:46:24;;;;;;;5.32;4.30;;;16.70;99.90;;;;;;5130546;27;20026;-34
2023/10/11 02:49:07;;;;;;;4.85;3.95;;;16.70;99.90;;;;;;5107242;27;20056;-34
2023/10/11 02:51:33;;;;;;;6.40;4.20;;;16.70;99.90;;;;;;5040881;28;20033;-36
2023/10/11 02:54:04;;;;;;;5.07;4.15;;;16.60;99.90;;;;;;5106497;27;20050;-36
2023/10/11 02:56:30;;;;;;;5.53;4.43;;;16.60;99.90;;;;;;5041149;28;20069;-37
2023/10/11 02:58:55;;;;;;;7.22;4.70;;;16.60;99.90;;;;;;5106178;27;20714;-34
2023/10/11 03:01:21;;;;;;;5.63;4.07;;;16.60;99.90;;;;;;5040634;28;20021;-34
2023/10/11 03:03:52;;;;;;;6.20;4.15;;;16.50;99.90;;;;;;5095841;27;20038;-35
2023/10/11 03:06:18;;;;;;;6.40;4.97;;;16.50;99.90;;;;;;5046152;27;20442;-35
2023/10/11 03:08:53;;;;;;;6.75;4.80;;;16.40;99.90;;;;;;5086831;27;20380;-34
2023/10/11 03:11:18;;;;;;;6.18;4.22;;;16.40;99.90;;;;;;5053868;27;20047;-35
2023/10/11 03:13:44;;;;;;;6.40;4.63;;;16.40;99.90;;;;;;5078012;27;20808;-34
2023/10/11 03:16:13;;;;;;;5.20;4.28;;;16.30;99.90;;;;;;5067019;27;20025;-35
2023/10/11 03:18:40;;;;;;;6.68;3.80;;;16.30;99.90;;;;;;5068649;27;20113;-35
2023/10/11 03:21:18;;;;;;;7.65;4.40;;;16.30;99.90;;;;;;5077058;27;20108;-35
2023/10/11 03:24:05;;;;;;;5.65;4.25;;;16.30;99.90;;;;;;5064194;27;20537;-35
2023/10/11 03:28:57;;;;;;;4.63;4.03;;;16.20;99.90;;;;;;5066256;27;20469;-35
2023/10/11 03:31:31;;;;;;;4.75;3.85;;;16.20;99.90;;;;;;5080585;27;20108;-34
2023/10/11 03:33:59;;;;;;;4.95;4.00;;;16.20;99.90;;;;;;5061271;27;20085;-35
2023/10/11 03:36:35;;;;;;;5.38;3.70;;;16.20;99.90;;;;;;5090595;27;20024;-36
2023/10/11 03:39:08;;;;;;;7.25;5.30;;;16.10;99.90;;;;;;5056733;27;20021;-35
2023/10/11 03:41:36;;;;;;;6.28;3.97;;;16.10;99.90;;;;;;5090194;27;20044;-34
2023/10/11 03:44:09;;;;;;;7.47;5.13;;;16.00;99.90;;;;;;5050922;27;20732;-35
2023/10/11 03:46:36;;;;;;;6.97;5.45;;;16.00;99.90;;;;;;5121385;27;20019;-35
2023/10/11 03:49:36;;;;;;;8.35;5.20;;;16.00;99.90;;;;;;5141211;27;20036;-35
2023/10/11 03:52:00;;;;;;;5.45;4.30;;;15.90;99.90;;;;;;5097386;27;20023;-36
2023/10/11 03:54:25;;;;;;;6.72;4.68;;;15.90;99.90;;;;;;5140266;27;20075;-36
2023/10/11 03:56:55;;;;;;;6.05;5.03;;;15.90;99.90;;;;;;5091968;27;20075;-35
2023/10/11 03:59:25;;;;;;;5.15;4.55;;;15.90;99.90;;;;;;5141685;27;20033;-35
2023/10/11 04:01:58;;;;;;;7.10;4.60;;;15.90;99.90;;;;;;5089605;27;20037;-37
2023/10/11 04:04:24;;;;;;;8.20;4.82;;;15.90;99.90;;;;;;5141850;27;20033;-36
2023/10/11 04:06:51;;;;;;;6.07;3.88;;;15.80;99.90;;;;;;5089962;27;20043;-35
2023/10/11 04:09:37;;;;;;;7.63;4.65;;;15.90;99.90;;;;;;5147204;27;20130;-34
2023/10/11 04:12:10;;;;;;;4.63;3.60;;;15.80;99.90;;;;;;5089071;27;20022;-35
2023/10/11 04:14:44;;;;;;;5.50;4.20;;;15.80;99.90;;;;;;5143237;27;20022;-35
2023/10/11 04:22:49;;;;;;;5.53;4.32;;;15.80;99.90;;;;;;5079777;27;20487;-35
2023/10/11 04:25:18;;;;;;;5.00;4.30;;;15.80;99.90;;;;;;5087854;27;20095;-34
2023/10/11 04:30:41;;;;;;;5.47;4.25;;;15.80;99.90;;;;;;5050050;27;20056;-35
2023/10/11 04:33:12;;;;;;;4.35;3.83;;;15.80;99.90;;;;;;5083311;27;20026;-36
2023/10/11 04:35:42;;;;;;;5.80;4.30;;;15.70;99.90;;;;;;5132811;27;20050;-35
2023/10/11 04:38:10;;;;;;;6.05;4.28;;;15.70;99.90;;;;;;5101487;27;20106;-36
2023/10/11 04:40:51;;;;;;;5.60;4.57;;;15.70;99.90;;;;;;5051217;27;20032;-37
2023/10/11 04:43:20;;;;;;;6.13;4.35;;;15.70;99.90;;;;;;5100890;27;20334;-35
2023/10/11 04:45:51;;;;;;;4.75;3.92;;;15.70;99.90;;;;;;5049899;27;20032;-41
2023/10/11 04:48:29;;;;;;;5.40;4.50;;;15.70;99.90;;;;;;5043585;27;20032;-35
2023/10/11 04:51:04;;;;;;;5.50;4.32;;;15.70;99.90;;;;;;5067583;27;20540;-35
2023/10/11 04:54:13;;;;;;;7.07;4.30;;;15.70;99.90;;;;;;5089551;27;20031;-36
2023/10/11 05:04:28;;;;;;;5.20;4.03;;;15.70;99.90;;;;;;5098664;27;20300;-35
2023/10/11 05:06:55;;;;;;;4.97;4.00;;;15.70;99.90;;;;;;5136509;27;20015;-36
2023/10/11 05:09:29;;;;;;;5.95;4.68;;;15.60;99.90;;;;;;5094105;27;20075;-35
2023/10/11 05:12:12;;;;;;;6.35;4.85;;;15.60;99.90;;;;;;5124530;27;20025;-41
2023/10/11 05:14:40;;;;;;;5.20;4.45;;;15.60;99.90;;;;;;5090578;27;20183;-37
2023/10/11 05:19:45;;;;;;;5.45;4.70;;;15.60;99.90;;;;;;5081079;27;20531;-36
2023/10/11 05:22:17;;;;;;;4.85;4.10;;;15.60;99.90;;;;;;5140370;27;20021;-36
2023/10/11 05:27:25;;;;;;;5.80;4.60;;;15.50;99.90;;;;;;5141112;27;20023;-45
2023/10/11 05:32:50;;;;;;;4.90;4.00;;;15.50;99.90;;;;;;5049050;27;20123;-35
2023/10/11 05:35:25;;;;;;;5.15;3.80;;;15.50;99.90;;;;;;5073663;27;20051;-33
2023/10/11 05:51:32;;;;;;;7.40;5.72;;;15.60;99.90;;;;;;5059881;27;20109;-35
2023/10/11 05:53:59;;;;;;;9.50;5.97;;;15.60;99.90;;;;;;5073430;27;20459;-36
2023/10/11 05:56:30;;;;;;;9.13;6.05;;;15.60;99.90;;;;;;5071394;27;20129;-35
2023/10/11 05:59:10;;;;;;;8.10;5.93;;;15.60;99.90;;;;;;5067804;27;20075;-35
2023/10/11 06:01:38;;;;;;;8.38;6.13;;;15.70;99.90;;;;;;5072160;27;20434;-35
2023/10/11 06:04:08;;;;;;;10.30;6.25;;;15.70;99.90;;;;;;5062969;27;20106;-36
2023/10/11 06:06:45;;;;;;;7.75;6.07;;;15.80;99.90;;;;;;5081231;27;20021;-34
2023/10/11 06:09:26;;;;;;;8.98;5.82;;;15.80;99.90;;;;;;5060288;27;20098;-35
2023/10/11 06:11:52;;;;;;;10.35;6.05;;;15.80;99.90;;;;;;5074645;27;20029;-35
2023/10/11 06:14:18;;;;;;;7.13;5.35;;;15.90;99.90;;;;;;5057784;27;20078;-35
2023/10/11 06:16:58;;;;;;;8.82;5.97;;;15.80;99.90;;;;;;5087714;27;20024;-35
2023/10/11 06:19:27;;;;;;;7.18;5.95;;;15.90;99.90;;;;;;5055108;27;20085;-35
2023/10/11 06:21:58;;;;;;;8.38;5.72;;;15.90;99.90;;;;;;5088945;27;20025;-35
2023/10/11 06:24:24;;;;;;;9.32;6.03;;;16.00;99.90;;;;;;5047546;27;20033;-35
2023/10/11 06:26:53;;;;;;;9.10;6.43;;;16.00;99.90;;;;;;5076971;27;20108;-35
2023/10/11 06:29:29;;;;;;;8.43;6.00;;;16.00;99.90;;;;;;5137332;27;20045;-35
2023/10/11 06:31:55;;;;;;;6.25;5.13;;;16.00;99.90;;;;;;5074494;27;20027;-35
2023/10/11 06:34:25;;;;;;;6.90;5.68;;;16.00;99.90;;;;;;5137278;27;20402;-34
2023/10/11 06:36:53;;;;;;;7.75;5.32;;;16.00;99.90;;;;;;5086426;27;20035;-34
2023/10/11 06:39:34;;;;;;;8.20;6.07;;;16.10;99.90;;;;;;5144513;27;20027;-34
2023/10/11 06:42:13;;;;;;;8.75;6.07;;;16.10;99.90;;;;;;5095705;27;20135;-35
2023/10/11 06:44:42;;;;;;;8.45;6.03;;;16.10;99.90;;;;;;5047748;27;20041;-35
2023/10/11 06:47:11;;;;;;;8.85;6.40;;;16.20;99.90;;;;;;5092453;27;20036;-35
2023/10/11 06:49:44;;;;;;;7.85;6.03;;;16.20;99.90;;;;;;5041777;27;20052;-35
2023/10/11 06:52:17;;;;;;;7.70;5.85;;;16.30;99.90;;;;;;5082439;27;20021;-35
2023/10/11 06:54:47;;;;;;;9.95;6.47;;;16.30;99.90;;;;;;5146761;27;20042;-34
2023/10/11 06:57:19;;;;;;;10.93;6.60;;;16.30;99.90;;;;;;5080554;27;20488;-35
2023/10/11 06:59:49;;;;;;;8.13;5.82;;;16.40;99.90;;;;;;5145019;27;20045;-35
2023/10/11 07:02:18;;;;;;;9.60;6.20;;;16.40;99.90;;;;;;5079581;27;20456;-35
2023/10/11 07:04:53;;;;;;;7.93;5.70;;;16.40;99.90;;;;;;5144465;27;20030;-34
2023/10/11 07:07:25;;;;;;;10.40;6.45;;;16.50;99.90;;;;;;5078968;27;20129;-35
2023/10/11 07:09:56;;;;;;;8.07;6.30;;;16.50;99.90;;;;;;5145334;27;20027;-35
2023/10/11 07:12:28;;;;;;;7.43;5.93;;;16.50;99.90;;;;;;5079095;27;20047;-35
2023/10/11 07:15:00;;;;;;;9.48;5.97;;;16.60;99.90;;;;;;5145720;27;20022;-35
2023/10/11 07:17:28;;;;;;;7.75;6.20;;;16.60;99.90;;;;;;5081419;27;20105;-36
2023/10/11 07:19:57;;;;;;;7.88;6.10;;;16.70;99.90;;;;;;5020941;28;20060;-36
2023/10/11 07:22:26;;;;;;;8.05;6.80;;;16.70;99.90;;;;;;5042322;27;20021;-35
2023/10/11 07:25:18;;;;;;;10.52;6.47;;;16.70;99.90;;;;;;5137275;27;20026;-35
2023/10/11 07:27:44;;;;;;;8.90;6.22;;;16.80;99.90;;;;;;5083272;27;20086;-35
2023/10/11 07:30:16;;;;;;;11.00;6.82;;;16.80;99.90;;;;;;5142474;27;20470;-36
2023/10/11 07:32:44;;;;;;;7.60;6.40;;;16.80;99.90;;;;;;5091451;27;20031;-35
2023/10/11 07:35:18;;;;;;;10.18;6.90;;;16.80;99.90;;;;;;5134063;27;20138;-34
2023/10/11 07:37:44;;;;;;;11.35;6.60;;;16.90;99.90;;;;;;5098229;27;20433;-35
2023/10/11 07:40:13;;;;;;;8.25;6.22;;;16.90;99.90;;;;;;5126203;27;20097;-35
2023/10/11 07:42:39;;;;;;;10.82;6.68;;;16.90;99.90;;;;;;5108929;27;20120;-36
2023/10/11 07:45:13;;;;;;;10.63;7.25;;;17.00;99.90;;;;;;5116142;27;20049;-34
2023/10/11 07:47:47;;;;;;;8.45;6.32;;;17.00;99.90;;;;;;5118282;27;20037;-34
2023/10/11 07:50:22;;;;;;;14.02;8.82;;;17.00;99.90;;;;;;5071380;27;20029;-35
2023/10/11 07:52:48;;;;;;;9.85;7.10;;;17.00;99.90;;;;;;5068892;27;20139;-36
2023/10/11 07:55:13;;;;;;;8.65;7.50;;;17.00;99.90;;;;;;5078374;27;20461;-35
2023/10/11 07:57:44;;;;;;;11.15;7.55;;;16.90;99.90;;;;;;5053898;27;20358;-34
2023/10/11 08:00:17;;;;;;;9.38;6.78;;;16.90;99.90;;;;;;5087662;27;20037;-35
2023/10/11 08:02:43;;;;;;;10.82;7.28;;;16.90;99.90;;;;;;5048240;27;20621;-34
2023/10/11 08:05:14;;;;;;;11.15;7.60;;;16.90;99.90;;;;;;5096067;27;20013;-36
2023/10/11 08:07:40;;;;;;;9.63;7.00;;;16.90;99.90;;;;;;5047249;27;20022;-35
2023/10/11 08:10:33;;;;;;;8.73;6.68;;;16.90;99.90;;;;;;5097510;27;20022;-38
2023/10/11 08:13:14;;;;;;;10.82;7.00;;;16.90;99.90;;;;;;5047657;27;20028;-35
2023/10/11 08:15:39;;;;;;;11.18;7.57;;;16.90;99.90;;;;;;5075275;28;20084;-34
2023/10/11 08:18:05;;;;;;;8.63;7.13;;;17.00;99.90;;;;;;5113378;27;20025;-35
2023/10/11 08:20:31;;;;;;;7.20;6.47;;;17.00;99.90;;;;;;5102779;27;20097;-34
2023/10/11 08:22:57;;;;;;;11.32;7.32;;;17.00;99.90;;;;;;5049743;27;20802;-35
2023/10/11 08:25:30;;;;;;;10.85;7.63;;;17.10;99.90;;;;;;5101787;27;20373;-37
2023/10/11 08:28:12;;;;;;;13.93;8.40;;;17.10;99.90;;;;;;5044413;27;20473;-35
2023/10/11 08:30:40;;;;;;;10.90;8.32;;;17.20;99.90;;;;;;5113075;27;20041;-35
2023/10/11 08:33:06;;;;;;;7.80;6.35;;;17.30;99.90;;;;;;5043907;27;20140;-36
2023/10/11 08:35:32;;;;;;;11.65;7.20;;;17.40;99.90;;;;;;5081994;27;20043;-36
2023/10/11 08:38:04;;;;;;;11.93;8.98;;;17.50;99.90;;;;;;5147182;27;20377;-35
2023/10/11 08:40:37;;;;;;;15.02;8.98;;;17.50;99.90;;;;;;5081839;27;20027;-36
2023/10/11 08:43:06;;;;;;;12.85;9.18;;;17.60;99.90;;;;;;5146989;27;20465;-34
2023/10/11 08:45:48;;;;;;;9.27;7.90;;;17.60;99.90;;;;;;5081797;27;20071;-34
2023/10/11 08:48:15;;;;;;;10.23;8.27;;;17.70;99.90;;;;;;5071510;27;20035;-36
2023/10/11 08:50:54;;;;;;;15.07;10.10;;;17.70;99.90;;;;;;5106997;27;20058;-35
2023/10/11 08:53:21;;;;;;;13.95;9.50;;;17.70;99.90;;;;;;5042705;28;20093;-36
2023/10/11 08:55:54;;;;;;;12.15;9.95;;;17.80;99.90;;;;;;5109508;27;20556;-36
2023/10/11 08:58:23;;;;;;;15.65;11.07;;;17.80;99.90;;;;;;5042235;28;20035;-36
2023/10/11 09:00:55;;;;;;;16.40;10.95;;;17.80;99.90;;;;;;5103592;27;20038;-35
2023/10/11 09:03:26;;;;;;;13.93;10.15;;;17.80;99.90;;;;;;5022814;28;20029;-35
2023/10/11 09:05:58;;;;;;;13.02;10.00;;;17.80;99.90;;;;;;5092358;27;20471;-35
2023/10/11 09:08:31;;;;;;;12.77;9.80;;;17.80;99.90;;;;;;5047989;27;20106;-36
2023/10/11 09:11:06;;;;;;;15.85;11.55;;;17.80;99.90;;;;;;5094619;27;20022;-37
2023/10/11 09:13:36;;;;;;;15.73;11.35;;;17.80;99.90;;;;;;5048785;27;20025;-35
2023/10/11 09:16:14;;;;;;;17.52;11.77;;;17.80;99.90;;;;;;5090267;27;20079;-35
2023/10/11 09:18:42;;;;;;;13.02;10.55;;;17.80;99.90;;;;;;5050657;27;20033;-35
2023/10/11 09:21:21;;;;;;;13.10;10.23;;;17.80;99.90;;;;;;5084921;27;20022;-37
2023/10/11 09:23:46;;;;;;;16.30;12.38;;;17.90;99.90;;;;;;5052129;27;20095;-36
2023/10/11 09:26:20;;;;;;;13.00;10.68;;;17.90;99.90;;;;;;5079738;27;20126;-34
2023/10/11 09:28:58;;;;;;;14.57;12.10;;;17.90;99.90;;;;;;5043156;27;20029;-36
2023/10/11 09:31:25;;;;;;;17.08;12.65;;;17.90;99.90;;;;;;5074980;27;20441;-35
2023/10/11 09:33:59;;;;;;;17.88;13.10;;;17.80;99.90;;;;;;5065428;27;20509;-35
2023/10/11 09:36:29;;;;;;;18.23;13.02;;;17.80;99.90;;;;;;5076497;27;20035;-35
2023/10/11 09:38:56;;;;;;;15.38;12.88;;;17.80;99.90;;;;;;5070842;27;20077;-35
2023/10/11 09:41:41;;;;;;;16.33;12.18;;;17.90;99.90;;;;;;5065198;27;20752;-35
2023/10/11 09:44:11;;;;;;;17.88;13.52;;;17.80;99.90;;;;;;5069118;27;20029;-35
2023/10/11 09:46:37;;;;;;;19.90;13.65;;;17.90;99.90;;;;;;5067109;27;20015;-35
2023/10/11 09:49:12;;;;;;;16.30;11.60;;;17.90;99.90;;;;;;5041667;28;20077;-35
2023/10/11 09:51:41;;;;;;;15.43;11.43;;;17.90;99.90;;;;;;5064943;27;20219;-35
2023/10/11 09:54:12;;;;;;;14.50;11.65;;;18.00;99.90;;;;;;5104303;27;20073;-35
2023/10/11 09:57:15;;;;;;;18.67;14.10;;;18.00;99.90;;;;;;5133239;27;20088;-36
2023/10/11 10:00:18;;;;;;;17.92;13.48;;;18.00;99.90;;;;;;5122595;27;20627;-33
2023/10/11 10:02:50;;;;;;;25.13;14.70;;;18.10;99.90;;;;;;5092799;27;20195;-36
2023/10/11 10:05:22;;;;;;;19.02;14.60;;;18.00;99.90;;;;;;5139082;27;20260;-36
2023/10/11 10:07:50;;;;;;;20.40;14.40;;;18.00;99.90;;;;;;5095813;27;20033;-36
2023/10/11 10:10:25;;;;;;;19.63;13.15;;;18.10;99.90;;;;;;5132135;27;20067;-36
2023/10/11 10:12:57;;;;;;;17.65;13.00;;;18.10;99.90;;;;;;5103037;27;20062;-35
2023/10/11 10:15:32;;;;;;;20.98;14.32;;;18.10;99.90;;;;;;5045686;27;20029;-34
2023/10/11 10:18:00;;;;;;;17.85;12.45;;;18.10;99.90;;;;;;5083248;27;20023;-35
2023/10/11 10:20:41;;;;;;;19.83;13.18;;;18.10;99.90;;;;;;5063973;27;20505;-35
2023/10/11 10:23:20;;;;;;;18.30;13.32;;;18.10;99.90;;;;;;5080703;27;20061;-35
2023/10/11 10:26:05;;;;;;;18.13;12.50;;;18.20;99.90;;;;;;5057276;27;20029;-35
2023/10/11 10:28:36;;;;;;;18.15;12.88;;;18.10;99.90;;;;;;5091016;27;20026;-36
2023/10/11 10:31:09;;;;;;;15.85;11.55;;;18.20;99.90;;;;;;5052895;27;20021;-35
2023/10/11 10:33:36;;;;;;;17.27;12.38;;;18.20;99.90;;;;;;5087467;27;20041;-34
2023/10/11 10:36:28;;;;;;;15.80;11.80;;;18.20;99.90;;;;;;5059017;27;20081;-35
2023/10/11 10:41:40;;;;;;;14.63;11.35;;;18.30;99.90;;;;;;5043243;27;20744;-36
2023/10/11 10:44:11;;;;;;;16.33;11.88;;;18.40;99.90;;;;;;5092150;27;20026;-36
2023/10/11 10:46:59;;;;;;;18.80;13.65;;;18.40;99.90;;;;;;5049966;27;20112;-35
2023/10/11 10:49:42;;;;;;;17.83;12.73;;;18.40;99.90;;;;;;5058574;27;20690;-36
2023/10/11 10:52:16;;;;;;;20.20;13.45;;;18.50;99.90;;;;;;5020750;28;20112;-35
2023/10/11 10:54:54;;;;;;;17.38;12.73;;;18.50;99.90;;;;;;5059490;27;20085;-35
2023/10/11 10:57:31;;;;;;;17.65;11.55;;;18.50;99.90;;;;;;5021033;28;20036;-36
2023/10/11 10:59:58;;;;;;;15.77;10.88;;;18.50;99.90;;;;;;5103369;27;20031;-34
2023/10/11 11:02:23;;;;;;;18.45;11.48;;;18.50;99.90;;;;;;5041148;28;20053;-35
2023/10/11 11:04:49;;;;;;;15.35;11.23;;;18.60;99.90;;;;;;5095226;27;20030;-35
2023/10/11 11:07:24;;;;;;;16.35;11.32;;;18.60;99.90;;;;;;5051968;27;20479;-36
2023/10/11 11:09:57;;;;;;;17.23;12.20;;;18.60;99.90;;;;;;5088830;27;20034;-35
2023/10/11 11:12:30;;;;;;;16.23;11.50;;;18.60;99.90;;;;;;5053825;27;20021;-36
2023/10/11 11:14:58;;;;;;;18.27;12.30;;;18.60;99.90;;;;;;5052542;28;20105;-40
2023/10/11 11:17:26;;;;;;;18.27;11.68;;;18.60;99.90;;;;;;5126108;27;20040;-35
2023/10/11 11:22:52;;;;;;;17.02;12.13;;;18.60;99.90;;;;;;5135451;27;20043;-36
2023/10/11 11:28:18;;;;;;;16.48;11.52;;;18.70;99.90;;;;;;5130727;27;20034;-35
2023/10/11 11:31:30;;;;;;;13.50;10.57;;;18.80;99.90;;;;;;5090060;27;20028;-35
2023/10/11 11:34:13;;;;;;;15.18;11.43;;;18.90;99.90;;;;;;5020676;28;20428;-36
2023/10/11 11:36:42;;;;;;;15.60;10.60;;;19.00;99.90;;;;;;5083081;27;20027;-36
2023/10/11 11:39:36;;;;;;;13.63;9.50;;;19.10;99.90;;;;;;5144416;27;20042;-36
2023/10/11 11:42:23;;;;;;;21.33;11.10;;;19.20;99.90;;;;;;5096472;27;20021;-36
2023/10/11 11:44:49;;;;;;;16.75;10.88;;;19.30;99.90;;;;;;5048475;27;20089;-36
2023/10/11 11:47:21;;;;;;;13.10;9.32;;;19.30;99.90;;;;;;5121864;27;20651;-36
2023/10/11 11:49:47;;;;;;;14.20;9.20;;;19.30;99.90;;;;;;5140637;27;20023;-35
2023/10/11 11:52:37;;;;;;;12.43;8.85;;;19.40;99.90;;;;;;5084808;27;20011;-35
2023/10/11 11:55:02;;;;;;;14.73;9.48;;;19.40;99.90;;;;;;5140803;27;20860;-34
2023/10/11 11:57:29;;;;;;;11.93;8.43;;;19.50;99.90;;;;;;5090860;27;20061;-35
2023/10/11 11:59:55;;;;;;;11.45;8.43;;;19.50;99.90;;;;;;5149606;27;20477;-35
2023/10/11 12:02:20;;;;;;;11.02;8.02;;;19.60;99.90;;;;;;5082352;27;20034;-36
2023/10/11 12:04:48;;;;;;;10.88;7.65;;;19.60;99.90;;;;;;5147888;27;20039;-34
2023/10/11 12:07:13;;;;;;;8.48;7.20;;;19.60;99.90;;;;;;5080407;27;20022;-35
2023/10/11 12:09:39;;;;;;;8.35;6.93;;;19.60;99.90;;;;;;5102233;27;20040;-35
2023/10/11 12:12:06;;;;;;;8.82;6.95;;;19.60;99.90;;;;;;5070002;27;20104;-35
2023/10/11 12:14:38;;;;;;;8.80;6.63;;;19.70;99.90;;;;;;5139226;27;20110;-36
2023/10/11 12:17:11;;;;;;;11.85;7.75;;;19.70;99.90;;;;;;5100875;27;20017;-36
2023/10/11 12:19:37;;;;;;;;;;;19.70;99.90;;;;;;5135706;27;20450;-36
2023/10/11 12:22:03;;;;;;;10.23;6.80;;;19.70;99.90;;;;;;5109168;27;19953;-35
2023/10/11 12:24:29;;;;;;;9.40;6.90;;;19.60;99.90;;;;;;5122856;27;20074;-36
2023/10/11 12:26:58;;;;;;;10.98;6.75;;;19.60;99.90;;;;;;5122793;27;20017;-35
2023/10/11 12:29:26;;;;;;;8.50;6.78;;;19.60;99.90;;;;;;5109864;27;20144;-36
2023/10/11 12:31:52;;;;;;;8.40;6.35;;;19.60;99.90;;;;;;5132643;27;20110;-35
2023/10/11 12:34:24;;;;;;;8.77;6.15;;;19.60;99.90;;;;;;5095638;27;20696;-35
2023/10/11 12:36:53;;;;;;;7.88;6.20;;;19.70;99.90;;;;;;5139175;27;20030;-35
2023/10/11 12:39:24;;;;;;;10.10;6.80;;;19.70;99.90;;;;;;5079048;27;20086;-35
2023/10/11 12:41:59;;;;;;;10.15;6.93;;;19.70;99.90;;;;;;5140505;27;20021;-36
2023/10/11 12:44:25;;;;;;;8.15;5.68;;;19.70;99.90;;;;;;5050125;27;20037;-36
2023/10/11 12:46:53;;;;;;;8.32;6.63;;;19.60;99.90;;;;;;5054242;27;20029;-35
2023/10/11 12:49:19;;;;;;;7.85;6.07;;;19.70;99.90;;;;;;5094989;27;20020;-35
2023/10/11 12:51:46;;;;;;;9.93;6.35;;;19.60;99.90;;;;;;5043576;27;20025;-35
2023/10/11 12:54:13;;;;;;;8.48;6.20;;;19.70;99.90;;;;;;5082851;27;20113;-36
2023/10/11 12:56:39;;;;;;;9.60;6.07;;;19.70;99.90;;;;;;5147748;27;20033;-37
2023/10/11 12:59:12;;;;;;;8.95;5.85;;;19.60;99.90;;;;;;5081145;27;20029;-35
2023/10/11 13:01:40;;;;;;;11.02;7.00;;;19.60;99.90;;;;;;5148572;27;20035;-36
2023/10/11 13:04:17;;;;;;;11.25;7.57;;;19.60;99.90;;;;;;5079763;27;20032;-35
2023/10/11 13:06:49;;;;;;;8.55;6.60;;;19.60;99.90;;;;;;5148992;27;20413;-36
2023/10/11 13:09:16;;;;;;;9.60;7.13;;;19.60;99.90;;;;;;5081785;27;20094;-36
2023/10/11 13:11:45;;;;;;;9.55;6.78;;;19.60;99.90;;;;;;5147720;27;20023;-35
2023/10/11 13:14:20;;;;;;;9.60;7.15;;;19.60;99.90;;;;;;5090963;27;20025;-36
2023/10/11 13:16:54;;;;;;;13.23;9.00;;;19.50;99.90;;;;;;5146203;27;20026;-35
2023/10/11 13:19:24;;;;;;;12.68;8.85;;;19.50;99.90;;;;;;5091607;27;20028;-37
2023/10/11 13:21:53;;;;;;;12.32;8.57;;;19.50;99.90;;;;;;5141082;27;20053;-35
2023/10/11 13:24:26;;;;;;;9.70;7.95;;;19.50;99.90;;;;;;5100975;27;20029;-35
2023/10/11 13:26:56;;;;;;;10.18;8.40;;;19.50;99.90;;;;;;5134772;27;20614;-36
2023/10/11 13:29:23;;;;;;;13.18;8.90;;;19.50;99.90;;;;;;5105343;27;20033;-36
2023/10/11 13:31:51;;;;;;;10.23;8.15;;;19.60;99.90;;;;;;5124318;27;20019;-36
2023/10/11 13:34:16;;;;;;;11.07;8.15;;;19.60;99.90;;;;;;5116220;27;20057;-36
2023/10/11 13:36:43;;;;;;;18.25;10.85;;;19.60;99.90;;;;;;5112829;27;20033;-36
2023/10/11 13:39:25;;;;;;;11.95;9.43;;;19.60;99.90;;;;;;5129117;27;20105;-36
2023/10/11 13:42:03;;;;;;;11.07;8.93;;;19.60;99.90;;;;;;5111121;27;20022;-36
2023/10/11 13:44:28;;;;;;;12.05;9.30;;;19.60;99.90;;;;;;5122927;27;20065;-37
2023/10/11 13:46:58;;;;;;;12.48;9.95;;;19.60;99.90;;;;;;5104226;27;20027;-36
2023/10/11 13:49:27;;;;;;;11.55;9.50;;;19.60;99.90;;;;;;5055294;27;20044;-35
2023/10/11 13:51:59;;;;;;;11.77;10.10;;;19.60;99.90;;;;;;5091622;27;20471;-34
2023/10/11 13:54:49;;;;;;;;;;;19.60;99.90;;;;;;5049169;27;20558;-34